sensor_id;sensor_type;location;lat;lon;timestamp;P1;durP1;ratioP1;P2;durP2;ratioP2
13797;SDS011;6970;51.340;3.240;2022-10-16T00:01:09;1.77;;;1.30;;
13797;SDS011;6970;51.340;3.240;2022-10-16T00:03:39;2.17;;;1.73;;
13797;SDS011;6970;51.340;3.240;2022-10-16T00:06:07;2.90;;;1.60;;
13797;SDS011;6970;51.340;3.240;2022-10-16T00:08:37;2.47;;;1.73;;
13797;SDS011;6970;51.340;3.240;2022-10-16T00:11:05;2.97;;;1.70;;
13797;SDS011;6970;51.340;3.240;2022-10-16T00:13:42;1.97;;;1.17;;
13797;SDS011;6970;51.340;3.240;2022-10-16T00:16:10;4.00;;;1.37;;
13797;SDS011;6970;51.340;3.240;2022-10-16T00:18:38;1.30;;;1.00;;
13797;SDS011;6970;51.340;3.240;2022-10-16T00:21:07;1.70;;;1.10;;
13797;SDS011;6970;51.340;3.240;2022-10-16T00:23:36;1.40;;;0.90;;
13797;SDS011;6970;51.340;3.240;2022-10-16T00:26:04;2.10;;;1.20;;
13797;SDS011;6970;51.340;3.240;2022-10-16T00:28:36;1.60;;;1.20;;
13797;SDS011;6970;51.340;3.240;2022-10-16T00:31:07;1.40;;;1.13;;
13797;SDS011;6970;51.340;3.240;2022-10-16T00:33:36;1.10;;;1.00;;
13797;SDS011;6970;51.340;3.240;2022-10-16T00:36:06;1.37;;;1.10;;
13797;SDS011;6970;51.340;3.240;2022-10-16T00:38:34;1.77;;;1.10;;
13797;SDS011;6970;51.340;3.240;2022-10-16T00:41:01;1.40;;;1.03;;
13797;SDS011;6970;51.340;3.240;2022-10-16T00:46:55;1.13;;;1.03;;
13797;SDS011;6970;51.340;3.240;2022-10-16T00:49:11;1.40;;;0.87;;
13797;SDS011;6970;51.340;3.240;2022-10-16T00:51:42;1.00;;;0.90;;
13797;SDS011;6970;51.340;3.240;2022-10-16T00:54:33;1.53;;;0.93;;
13797;SDS011;6970;51.340;3.240;2022-10-16T00:57:01;2.27;;;1.00;;
13797;SDS011;6970;51.340;3.240;2022-10-16T01:02:08;2.70;;;1.07;;
13797;SDS011;6970;51.340;3.240;2022-10-16T01:04:42;1.80;;;1.00;;
13797;SDS011;6970;51.340;3.240;2022-10-16T01:15:25;2.13;;;1.20;;
13797;SDS011;6970;51.340;3.240;2022-10-16T01:18:05;1.87;;;1.10;;
13797;SDS011;6970;51.340;3.240;2022-10-16T01:20:40;1.90;;;1.00;;
13797;SDS011;6970;51.340;3.240;2022-10-16T01:23:27;2.20;;;1.40;;
13797;SDS011;6970;51.340;3.240;2022-10-16T01:29:09;3.30;;;1.00;;
13797;SDS011;6970;51.340;3.240;2022-10-16T01:31:39;2.63;;;1.10;;
13797;SDS011;6970;51.340;3.240;2022-10-16T01:36:48;2.63;;;1.40;;
13797;SDS011;6970;51.340;3.240;2022-10-16T01:39:27;1.73;;;1.20;;
13797;SDS011;6970;51.340;3.240;2022-10-16T01:42:16;2.27;;;1.27;;
13797;SDS011;6970;51.340;3.240;2022-10-16T01:44:49;1.57;;;1.10;;
13797;SDS011;6970;51.340;3.240;2022-10-16T01:47:19;3.30;;;1.40;;
13797;SDS011;6970;51.340;3.240;2022-10-16T01:49:51;2.53;;;1.30;;
13797;SDS011;6970;51.340;3.240;2022-10-16T01:52:21;2.13;;;1.20;;
13797;SDS011;6970;51.340;3.240;2022-10-16T01:54:52;2.00;;;1.00;;
13797;SDS011;6970;51.340;3.240;2022-10-16T01:57:21;2.20;;;1.10;;
13797;SDS011;6970;51.340;3.240;2022-10-16T01:59:52;3.37;;;1.20;;
13797;SDS011;6970;51.340;3.240;2022-10-16T02:02:22;1.10;;;1.00;;
13797;SDS011;6970;51.340;3.240;2022-10-16T02:04:57;1.80;;;0.90;;
13797;SDS011;6970;51.340;3.240;2022-10-16T02:07:27;1.03;;;0.80;;
13797;SDS011;6970;51.340;3.240;2022-10-16T02:09:54;4.33;;;1.43;;
13797;SDS011;6970;51.340;3.240;2022-10-16T02:12:24;2.20;;;1.30;;
13797;SDS011;6970;51.340;3.240;2022-10-16T02:14:54;1.30;;;1.20;;
13797;SDS011;6970;51.340;3.240;2022-10-16T02:17:21;2.87;;;1.37;;
13797;SDS011;6970;51.340;3.240;2022-10-16T02:19:49;2.87;;;1.33;;
13797;SDS011;6970;51.340;3.240;2022-10-16T02:25:10;1.53;;;1.17;;
13797;SDS011;6970;51.340;3.240;2022-10-16T02:30:38;2.30;;;1.07;;
13797;SDS011;6970;51.340;3.240;2022-10-16T02:33:15;2.10;;;1.20;;
13797;SDS011;6970;51.340;3.240;2022-10-16T02:35:45;1.27;;;1.17;;
13797;SDS011;6970;51.340;3.240;2022-10-16T02:38:14;1.93;;;1.17;;
13797;SDS011;6970;51.340;3.240;2022-10-16T02:40:42;2.53;;;1.50;;
13797;SDS011;6970;51.340;3.240;2022-10-16T02:43:10;2.57;;;1.23;;
13797;SDS011;6970;51.340;3.240;2022-10-16T02:45:38;2.67;;;1.40;;
13797;SDS011;6970;51.340;3.240;2022-10-16T02:48:05;2.40;;;1.43;;
13797;SDS011;6970;51.340;3.240;2022-10-16T02:50:32;2.37;;;1.40;;
13797;SDS011;6970;51.340;3.240;2022-10-16T02:52:59;3.70;;;1.53;;
13797;SDS011;6970;51.340;3.240;2022-10-16T02:55:26;2.50;;;1.20;;
13797;SDS011;6970;51.340;3.240;2022-10-16T02:57:55;2.80;;;1.20;;
13797;SDS011;6970;51.340;3.240;2022-10-16T03:00:22;4.23;;;1.50;;
13797;SDS011;6970;51.340;3.240;2022-10-16T03:02:48;2.07;;;1.00;;
13797;SDS011;6970;51.340;3.240;2022-10-16T03:05:16;3.63;;;1.20;;
13797;SDS011;6970;51.340;3.240;2022-10-16T03:07:43;4.60;;;1.30;;
13797;SDS011;6970;51.340;3.240;2022-10-16T03:10:10;3.80;;;1.40;;
13797;SDS011;6970;51.340;3.240;2022-10-16T03:12:37;2.27;;;1.40;;
13797;SDS011;6970;51.340;3.240;2022-10-16T03:15:04;5.40;;;1.40;;
13797;SDS011;6970;51.340;3.240;2022-10-16T03:17:33;3.57;;;1.30;;
13797;SDS011;6970;51.340;3.240;2022-10-16T03:20:00;7.03;;;1.10;;
13797;SDS011;6970;51.340;3.240;2022-10-16T03:22:27;2.83;;;1.00;;
13797;SDS011;6970;51.340;3.240;2022-10-16T03:24:53;3.37;;;1.30;;
13797;SDS011;6970;51.340;3.240;2022-10-16T03:27:20;3.67;;;1.50;;
13797;SDS011;6970;51.340;3.240;2022-10-16T03:29:48;5.53;;;1.50;;
13797;SDS011;6970;51.340;3.240;2022-10-16T03:32:14;2.30;;;1.40;;
13797;SDS011;6970;51.340;3.240;2022-10-16T03:34:41;3.80;;;1.30;;
13797;SDS011;6970;51.340;3.240;2022-10-16T03:37:08;2.20;;;1.10;;
13797;SDS011;6970;51.340;3.240;2022-10-16T03:39:36;4.57;;;1.47;;
13797;SDS011;6970;51.340;3.240;2022-10-16T03:42:03;2.30;;;1.40;;
13797;SDS011;6970;51.340;3.240;2022-10-16T03:44:29;3.20;;;1.50;;
13797;SDS011;6970;51.340;3.240;2022-10-16T03:46:56;4.97;;;1.30;;
13797;SDS011;6970;51.340;3.240;2022-10-16T03:49:23;4.67;;;1.83;;
13797;SDS011;6970;51.340;3.240;2022-10-16T03:51:50;2.20;;;1.43;;
13797;SDS011;6970;51.340;3.240;2022-10-16T03:54:17;1.80;;;1.40;;
13797;SDS011;6970;51.340;3.240;2022-10-16T03:56:44;2.50;;;1.40;;
13797;SDS011;6970;51.340;3.240;2022-10-16T03:59:11;3.30;;;1.50;;
13797;SDS011;6970;51.340;3.240;2022-10-16T04:01:38;3.50;;;1.33;;
13797;SDS011;6970;51.340;3.240;2022-10-16T04:04:05;1.47;;;1.20;;
13797;SDS011;6970;51.340;3.240;2022-10-16T04:06:32;4.53;;;1.50;;
13797;SDS011;6970;51.340;3.240;2022-10-16T04:08:59;2.07;;;1.60;;
13797;SDS011;6970;51.340;3.240;2022-10-16T04:11:25;2.33;;;1.20;;
13797;SDS011;6970;51.340;3.240;2022-10-16T04:13:52;3.27;;;1.40;;
13797;SDS011;6970;51.340;3.240;2022-10-16T04:16:19;2.03;;;0.93;;
13797;SDS011;6970;51.340;3.240;2022-10-16T04:18:46;2.90;;;1.10;;
13797;SDS011;6970;51.340;3.240;2022-10-16T04:21:14;3.53;;;1.50;;
13797;SDS011;6970;51.340;3.240;2022-10-16T04:23:41;4.83;;;1.40;;
13797;SDS011;6970;51.340;3.240;2022-10-16T04:26:08;4.63;;;1.40;;
13797;SDS011;6970;51.340;3.240;2022-10-16T04:28:36;2.40;;;0.93;;
13797;SDS011;6970;51.340;3.240;2022-10-16T04:31:04;4.27;;;1.30;;
13797;SDS011;6970;51.340;3.240;2022-10-16T04:33:31;3.87;;;1.00;;
13797;SDS011;6970;51.340;3.240;2022-10-16T04:35:59;4.63;;;1.10;;
13797;SDS011;6970;51.340;3.240;2022-10-16T04:38:28;3.23;;;1.53;;
13797;SDS011;6970;51.340;3.240;2022-10-16T04:40:55;4.93;;;1.43;;
13797;SDS011;6970;51.340;3.240;2022-10-16T04:43:22;5.33;;;1.33;;
13797;SDS011;6970;51.340;3.240;2022-10-16T04:45:50;4.77;;;1.10;;
13797;SDS011;6970;51.340;3.240;2022-10-16T04:48:17;3.23;;;1.20;;
13797;SDS011;6970;51.340;3.240;2022-10-16T04:50:44;3.13;;;1.10;;
13797;SDS011;6970;51.340;3.240;2022-10-16T04:53:19;3.53;;;1.07;;
13797;SDS011;6970;51.340;3.240;2022-10-16T04:55:46;4.10;;;1.30;;
13797;SDS011;6970;51.340;3.240;2022-10-16T04:58:13;3.17;;;1.20;;
13797;SDS011;6970;51.340;3.240;2022-10-16T05:00:40;3.77;;;1.30;;
13797;SDS011;6970;51.340;3.240;2022-10-16T05:03:06;2.33;;;1.13;;
13797;SDS011;6970;51.340;3.240;2022-10-16T05:05:35;3.93;;;1.23;;
13797;SDS011;6970;51.340;3.240;2022-10-16T05:08:02;2.27;;;1.33;;
13797;SDS011;6970;51.340;3.240;2022-10-16T05:10:30;8.07;;;1.20;;
13797;SDS011;6970;51.340;3.240;2022-10-16T05:12:57;5.40;;;1.40;;
13797;SDS011;6970;51.340;3.240;2022-10-16T05:15:25;3.03;;;1.10;;
13797;SDS011;6970;51.340;3.240;2022-10-16T05:17:53;3.87;;;1.47;;
13797;SDS011;6970;51.340;3.240;2022-10-16T05:20:20;4.60;;;1.27;;
13797;SDS011;6970;51.340;3.240;2022-10-16T05:22:47;6.87;;;1.30;;
13797;SDS011;6970;51.340;3.240;2022-10-16T05:25:15;3.70;;;1.30;;
13797;SDS011;6970;51.340;3.240;2022-10-16T05:27:42;3.00;;;1.23;;
13797;SDS011;6970;51.340;3.240;2022-10-16T05:30:09;3.83;;;1.47;;
13797;SDS011;6970;51.340;3.240;2022-10-16T05:32:37;7.13;;;1.47;;
13797;SDS011;6970;51.340;3.240;2022-10-16T05:35:04;2.37;;;0.90;;
13797;SDS011;6970;51.340;3.240;2022-10-16T05:37:37;3.80;;;1.40;;
13797;SDS011;6970;51.340;3.240;2022-10-16T05:40:04;4.23;;;1.10;;
13797;SDS011;6970;51.340;3.240;2022-10-16T05:42:32;5.33;;;0.97;;
13797;SDS011;6970;51.340;3.240;2022-10-16T05:44:59;4.60;;;1.10;;
13797;SDS011;6970;51.340;3.240;2022-10-16T05:47:26;5.80;;;1.47;;
13797;SDS011;6970;51.340;3.240;2022-10-16T05:49:54;7.47;;;1.40;;
13797;SDS011;6970;51.340;3.240;2022-10-16T05:52:22;5.17;;;1.47;;
13797;SDS011;6970;51.340;3.240;2022-10-16T05:54:48;3.17;;;1.30;;
13797;SDS011;6970;51.340;3.240;2022-10-16T05:57:15;1.73;;;1.40;;
13797;SDS011;6970;51.340;3.240;2022-10-16T05:59:42;5.87;;;1.67;;
13797;SDS011;6970;51.340;3.240;2022-10-16T06:02:12;4.07;;;1.50;;
13797;SDS011;6970;51.340;3.240;2022-10-16T06:04:40;6.97;;;1.70;;
13797;SDS011;6970;51.340;3.240;2022-10-16T06:07:07;3.60;;;1.30;;
13797;SDS011;6970;51.340;3.240;2022-10-16T06:09:34;4.33;;;1.40;;
13797;SDS011;6970;51.340;3.240;2022-10-16T06:12:01;3.97;;;1.10;;
13797;SDS011;6970;51.340;3.240;2022-10-16T06:14:28;2.33;;;1.43;;
13797;SDS011;6970;51.340;3.240;2022-10-16T06:16:55;6.87;;;1.60;;
13797;SDS011;6970;51.340;3.240;2022-10-16T06:19:22;5.50;;;1.53;;
13797;SDS011;6970;51.340;3.240;2022-10-16T06:21:49;4.77;;;1.77;;
13797;SDS011;6970;51.340;3.240;2022-10-16T06:24:16;3.13;;;1.40;;
13797;SDS011;6970;51.340;3.240;2022-10-16T06:26:43;2.60;;;1.63;;
13797;SDS011;6970;51.340;3.240;2022-10-16T06:29:10;3.23;;;1.13;;
13797;SDS011;6970;51.340;3.240;2022-10-16T06:31:36;3.50;;;1.23;;
13797;SDS011;6970;51.340;3.240;2022-10-16T06:34:03;2.53;;;1.13;;
13797;SDS011;6970;51.340;3.240;2022-10-16T06:36:35;3.87;;;1.20;;
13797;SDS011;6970;51.340;3.240;2022-10-16T06:39:02;2.47;;;1.20;;
13797;SDS011;6970;51.340;3.240;2022-10-16T06:41:31;3.80;;;1.17;;
13797;SDS011;6970;51.340;3.240;2022-10-16T06:43:57;5.00;;;1.73;;
13797;SDS011;6970;51.340;3.240;2022-10-16T06:46:25;9.90;;;1.27;;
13797;SDS011;6970;51.340;3.240;2022-10-16T06:48:53;3.57;;;1.20;;
13797;SDS011;6970;51.340;3.240;2022-10-16T06:51:21;5.67;;;1.27;;
13797;SDS011;6970;51.340;3.240;2022-10-16T06:53:50;3.03;;;1.47;;
13797;SDS011;6970;51.340;3.240;2022-10-16T06:56:29;3.20;;;1.10;;
13797;SDS011;6970;51.340;3.240;2022-10-16T06:58:58;4.03;;;1.00;;
13797;SDS011;6970;51.340;3.240;2022-10-16T07:01:25;4.67;;;1.43;;
13797;SDS011;6970;51.340;3.240;2022-10-16T07:03:53;3.17;;;1.40;;
13797;SDS011;6970;51.340;3.240;2022-10-16T07:06:21;3.93;;;1.40;;
13797;SDS011;6970;51.340;3.240;2022-10-16T07:08:49;4.07;;;1.20;;
13797;SDS011;6970;51.340;3.240;2022-10-16T07:11:17;3.37;;;1.20;;
13797;SDS011;6970;51.340;3.240;2022-10-16T07:13:46;4.67;;;1.53;;
13797;SDS011;6970;51.340;3.240;2022-10-16T07:16:22;3.73;;;1.23;;
13797;SDS011;6970;51.340;3.240;2022-10-16T07:18:50;3.27;;;1.23;;
13797;SDS011;6970;51.340;3.240;2022-10-16T07:21:21;5.23;;;1.33;;
13797;SDS011;6970;51.340;3.240;2022-10-16T07:23:56;5.03;;;1.63;;
13797;SDS011;6970;51.340;3.240;2022-10-16T07:26:25;4.37;;;1.30;;
13797;SDS011;6970;51.340;3.240;2022-10-16T07:28:53;3.60;;;1.53;;
13797;SDS011;6970;51.340;3.240;2022-10-16T07:31:20;3.20;;;1.50;;
13797;SDS011;6970;51.340;3.240;2022-10-16T07:33:48;4.83;;;1.33;;
13797;SDS011;6970;51.340;3.240;2022-10-16T07:36:15;2.60;;;1.30;;
13797;SDS011;6970;51.340;3.240;2022-10-16T07:38:45;6.63;;;1.77;;
13797;SDS011;6970;51.340;3.240;2022-10-16T07:41:13;2.87;;;1.60;;
13797;SDS011;6970;51.340;3.240;2022-10-16T07:43:46;4.73;;;1.70;;
13797;SDS011;6970;51.340;3.240;2022-10-16T07:46:14;3.67;;;1.52;;
13797;SDS011;6970;51.340;3.240;2022-10-16T07:48:41;3.67;;;1.42;;
13797;SDS011;6970;51.340;3.240;2022-10-16T07:51:12;3.28;;;1.58;;
13797;SDS011;6970;51.340;3.240;2022-10-16T07:53:40;2.08;;;1.00;;
13797;SDS011;6970;51.340;3.240;2022-10-16T07:56:07;4.85;;;1.30;;
13797;SDS011;6970;51.340;3.240;2022-10-16T07:58:34;4.18;;;1.40;;
13797;SDS011;6970;51.340;3.240;2022-10-16T08:01:05;2.30;;;1.05;;
13797;SDS011;6970;51.340;3.240;2022-10-16T08:03:34;3.25;;;1.23;;
13797;SDS011;6970;51.340;3.240;2022-10-16T08:06:01;3.40;;;1.13;;
13797;SDS011;6970;51.340;3.240;2022-10-16T08:08:29;2.92;;;1.05;;
13797;SDS011;6970;51.340;3.240;2022-10-16T08:10:56;2.95;;;1.20;;
13797;SDS011;6970;51.340;3.240;2022-10-16T08:13:23;2.47;;;1.33;;
13797;SDS011;6970;51.340;3.240;2022-10-16T08:15:50;3.47;;;1.27;;
13797;SDS011;6970;51.340;3.240;2022-10-16T08:18:17;3.83;;;1.13;;
13797;SDS011;6970;51.340;3.240;2022-10-16T08:20:44;2.00;;;1.30;;
13797;SDS011;6970;51.340;3.240;2022-10-16T08:23:11;3.65;;;1.38;;
13797;SDS011;6970;51.340;3.240;2022-10-16T08:25:39;5.18;;;1.48;;
13797;SDS011;6970;51.340;3.240;2022-10-16T08:28:07;4.22;;;1.17;;
13797;SDS011;6970;51.340;3.240;2022-10-16T08:30:36;3.33;;;1.25;;
13797;SDS011;6970;51.340;3.240;2022-10-16T08:33:03;4.63;;;1.50;;
13797;SDS011;6970;51.340;3.240;2022-10-16T08:35:30;2.08;;;1.15;;
13797;SDS011;6970;51.340;3.240;2022-10-16T08:37:57;5.97;;;1.38;;
13797;SDS011;6970;51.340;3.240;2022-10-16T08:40:25;3.97;;;1.48;;
13797;SDS011;6970;51.340;3.240;2022-10-16T08:51:18;2.00;;;1.10;;
13797;SDS011;6970;51.340;3.240;2022-10-16T08:54:21;3.30;;;1.40;;
13797;SDS011;6970;51.340;3.240;2022-10-16T08:56:49;4.57;;;1.52;;
13797;SDS011;6970;51.340;3.240;2022-10-16T08:59:16;3.05;;;1.20;;
13797;SDS011;6970;51.340;3.240;2022-10-16T09:01:46;2.78;;;1.20;;
13797;SDS011;6970;51.340;3.240;2022-10-16T09:06:47;5.22;;;1.50;;
13797;SDS011;6970;51.340;3.240;2022-10-16T09:09:43;4.05;;;1.33;;
13797;SDS011;6970;51.340;3.240;2022-10-16T09:12:32;2.90;;;1.27;;
13797;SDS011;6970;51.340;3.240;2022-10-16T09:15:31;5.82;;;1.75;;
13797;SDS011;6970;51.340;3.240;2022-10-16T09:23:30;3.78;;;1.42;;
13797;SDS011;6970;51.340;3.240;2022-10-16T09:26:03;4.20;;;1.70;;
13797;SDS011;6970;51.340;3.240;2022-10-16T09:28:32;2.75;;;1.38;;
13797;SDS011;6970;51.340;3.240;2022-10-16T09:30:59;4.65;;;1.92;;
13797;SDS011;6970;51.340;3.240;2022-10-16T09:33:28;2.78;;;1.33;;
13797;SDS011;6970;51.340;3.240;2022-10-16T09:36:05;3.17;;;1.50;;
13797;SDS011;6970;51.340;3.240;2022-10-16T09:38:33;5.68;;;1.45;;
13797;SDS011;6970;51.340;3.240;2022-10-16T09:41:13;3.67;;;1.80;;
13797;SDS011;6970;51.340;3.240;2022-10-16T09:46:24;5.80;;;1.73;;
13797;SDS011;6970;51.340;3.240;2022-10-16T09:49:20;2.95;;;1.52;;
13797;SDS011;6970;51.340;3.240;2022-10-16T09:51:48;5.30;;;1.63;;
13797;SDS011;6970;51.340;3.240;2022-10-16T09:54:17;5.53;;;1.95;;
13797;SDS011;6970;51.340;3.240;2022-10-16T09:57:04;4.50;;;1.55;;
13797;SDS011;6970;51.340;3.240;2022-10-16T09:59:33;5.80;;;1.63;;
13797;SDS011;6970;51.340;3.240;2022-10-16T10:02:03;4.65;;;1.73;;
13797;SDS011;6970;51.340;3.240;2022-10-16T10:04:41;5.72;;;2.10;;
13797;SDS011;6970;51.340;3.240;2022-10-16T10:07:18;6.03;;;1.95;;
13797;SDS011;6970;51.340;3.240;2022-10-16T10:09:53;3.58;;;1.55;;
13797;SDS011;6970;51.340;3.240;2022-10-16T10:12:27;5.20;;;2.10;;
13797;SDS011;6970;51.340;3.240;2022-10-16T10:14:56;3.38;;;1.75;;
13797;SDS011;6970;51.340;3.240;2022-10-16T10:17:33;4.22;;;2.03;;
13797;SDS011;6970;51.340;3.240;2022-10-16T10:22:57;3.92;;;1.95;;
13797;SDS011;6970;51.340;3.240;2022-10-16T10:25:33;5.90;;;1.67;;
13797;SDS011;6970;51.340;3.240;2022-10-16T10:34:26;5.65;;;2.05;;
13797;SDS011;6970;51.340;3.240;2022-10-16T10:37:19;10.95;;;2.20;;
13797;SDS011;6970;51.340;3.240;2022-10-16T10:40:07;6.00;;;2.22;;
13797;SDS011;6970;51.340;3.240;2022-10-16T10:42:57;8.27;;;2.10;;
13797;SDS011;6970;51.340;3.240;2022-10-16T10:45:47;4.32;;;2.03;;
13797;SDS011;6970;51.340;3.240;2022-10-16T10:48:33;7.55;;;1.95;;
13797;SDS011;6970;51.340;3.240;2022-10-16T10:54:26;5.32;;;2.15;;
13797;SDS011;6970;51.340;3.240;2022-10-16T11:05:40;8.23;;;2.45;;
13797;SDS011;6970;51.340;3.240;2022-10-16T11:11:02;8.38;;;2.75;;
13797;SDS011;6970;51.340;3.240;2022-10-16T11:13:35;7.78;;;2.20;;
13797;SDS011;6970;51.340;3.240;2022-10-16T11:16:32;7.28;;;2.33;;
13797;SDS011;6970;51.340;3.240;2022-10-16T11:21:30;7.45;;;2.50;;
13797;SDS011;6970;51.340;3.240;2022-10-16T11:24:15;7.60;;;2.47;;
13797;SDS011;6970;51.340;3.240;2022-10-16T11:26:48;7.67;;;2.10;;
13797;SDS011;6970;51.340;3.240;2022-10-16T11:29:19;7.43;;;2.10;;
13797;SDS011;6970;51.340;3.240;2022-10-16T11:31:59;6.10;;;1.93;;
13797;SDS011;6970;51.340;3.240;2022-10-16T11:34:39;5.77;;;1.90;;
13797;SDS011;6970;51.340;3.240;2022-10-16T11:37:14;8.50;;;2.20;;
13797;SDS011;6970;51.340;3.240;2022-10-16T11:39:46;5.07;;;2.13;;
13797;SDS011;6970;51.340;3.240;2022-10-16T11:42:32;12.37;;;2.63;;
13797;SDS011;6970;51.340;3.240;2022-10-16T11:47:34;7.77;;;2.23;;
13797;SDS011;6970;51.340;3.240;2022-10-16T11:56:12;12.97;;;3.83;;
13797;SDS011;6970;51.340;3.240;2022-10-16T12:01:33;7.30;;;2.37;;
13797;SDS011;6970;51.340;3.240;2022-10-16T12:09:30;9.90;;;2.00;;
13797;SDS011;6970;51.340;3.240;2022-10-16T12:11:58;4.97;;;2.10;;
13797;SDS011;6970;51.340;3.240;2022-10-16T12:17:22;8.43;;;2.33;;
13797;SDS011;6970;51.340;3.240;2022-10-16T12:22:48;7.83;;;2.60;;
13797;SDS011;6970;51.340;3.240;2022-10-16T12:25:34;8.30;;;1.87;;
13797;SDS011;6970;51.340;3.240;2022-10-16T12:28:17;9.07;;;2.10;;
13797;SDS011;6970;51.340;3.240;2022-10-16T12:30:53;5.03;;;1.87;;
13797;SDS011;6970;51.340;3.240;2022-10-16T12:35:56;8.80;;;2.40;;
13797;SDS011;6970;51.340;3.240;2022-10-16T12:48:42;7.73;;;1.73;;
13797;SDS011;6970;51.340;3.240;2022-10-16T12:54:02;4.70;;;1.13;;
13797;SDS011;6970;51.340;3.240;2022-10-16T13:04:34;8.73;;;2.00;;
13797;SDS011;6970;51.340;3.240;2022-10-16T13:21:19;4.17;;;1.40;;
13797;SDS011;6970;51.340;3.240;2022-10-16T13:23:57;3.23;;;1.20;;
13797;SDS011;6970;51.340;3.240;2022-10-16T13:29:40;6.30;;;1.70;;
13797;SDS011;6970;51.340;3.240;2022-10-16T13:32:09;6.07;;;1.87;;
13797;SDS011;6970;51.340;3.240;2022-10-16T13:34:48;6.93;;;1.83;;
13797;SDS011;6970;51.340;3.240;2022-10-16T13:37:19;5.80;;;1.80;;
13797;SDS011;6970;51.340;3.240;2022-10-16T13:39:48;3.63;;;1.40;;
13797;SDS011;6970;51.340;3.240;2022-10-16T13:42:21;10.20;;;1.83;;
13797;SDS011;6970;51.340;3.240;2022-10-16T13:44:53;2.47;;;1.23;;
13797;SDS011;6970;51.340;3.240;2022-10-16T13:47:26;5.90;;;2.07;;
13797;SDS011;6970;51.340;3.240;2022-10-16T13:50:03;7.73;;;1.60;;
13797;SDS011;6970;51.340;3.240;2022-10-16T13:52:41;5.33;;;1.57;;
13797;SDS011;6970;51.340;3.240;2022-10-16T13:55:15;5.43;;;1.60;;
13797;SDS011;6970;51.340;3.240;2022-10-16T13:57:44;3.90;;;1.63;;
13797;SDS011;6970;51.340;3.240;2022-10-16T14:00:19;4.80;;;1.73;;
13797;SDS011;6970;51.340;3.240;2022-10-16T14:02:52;4.13;;;1.73;;
13797;SDS011;6970;51.340;3.240;2022-10-16T14:05:24;7.93;;;1.80;;
13797;SDS011;6970;51.340;3.240;2022-10-16T14:07:51;5.70;;;2.00;;
13797;SDS011;6970;51.340;3.240;2022-10-16T14:10:30;5.10;;;1.60;;
13797;SDS011;6970;51.340;3.240;2022-10-16T14:13:03;3.10;;;1.40;;
13797;SDS011;6970;51.340;3.240;2022-10-16T14:15:32;4.50;;;2.00;;
13797;SDS011;6970;51.340;3.240;2022-10-16T14:18:01;6.53;;;2.00;;
13797;SDS011;6970;51.340;3.240;2022-10-16T14:20:30;6.90;;;1.93;;
13797;SDS011;6970;51.340;3.240;2022-10-16T14:23:01;4.33;;;1.80;;
13797;SDS011;6970;51.340;3.240;2022-10-16T14:25:45;4.73;;;1.40;;
13797;SDS011;6970;51.340;3.240;2022-10-16T14:30:52;4.10;;;1.70;;
13797;SDS011;6970;51.340;3.240;2022-10-16T14:38:39;4.10;;;2.07;;
13797;SDS011;6970;51.340;3.240;2022-10-16T14:41:08;7.37;;;1.63;;
13797;SDS011;6970;51.340;3.240;2022-10-16T14:43:36;4.70;;;1.70;;
13797;SDS011;6970;51.340;3.240;2022-10-16T14:46:09;5.53;;;2.43;;
13797;SDS011;6970;51.340;3.240;2022-10-16T14:48:41;5.57;;;1.67;;
13797;SDS011;6970;51.340;3.240;2022-10-16T14:51:19;8.23;;;1.73;;
13797;SDS011;6970;51.340;3.240;2022-10-16T14:53:46;5.70;;;1.90;;
13797;SDS011;6970;51.340;3.240;2022-10-16T14:56:20;8.70;;;1.53;;
13797;SDS011;6970;51.340;3.240;2022-10-16T14:58:49;6.70;;;2.13;;
13797;SDS011;6970;51.340;3.240;2022-10-16T15:01:17;6.10;;;2.10;;
13797;SDS011;6970;51.340;3.240;2022-10-16T15:03:44;8.63;;;1.67;;
13797;SDS011;6970;51.340;3.240;2022-10-16T15:06:13;5.80;;;2.03;;
13797;SDS011;6970;51.340;3.240;2022-10-16T15:08:41;4.00;;;1.83;;
13797;SDS011;6970;51.340;3.240;2022-10-16T15:11:18;4.77;;;2.17;;
13797;SDS011;6970;51.340;3.240;2022-10-16T15:13:45;4.67;;;1.90;;
13797;SDS011;6970;51.340;3.240;2022-10-16T15:16:16;4.53;;;1.40;;
13797;SDS011;6970;51.340;3.240;2022-10-16T15:18:43;3.07;;;1.30;;
13797;SDS011;6970;51.340;3.240;2022-10-16T15:21:22;5.23;;;1.33;;
13797;SDS011;6970;51.340;3.240;2022-10-16T15:23:55;7.90;;;1.70;;
13797;SDS011;6970;51.340;3.240;2022-10-16T15:26:26;5.90;;;1.23;;
13797;SDS011;6970;51.340;3.240;2022-10-16T15:28:55;3.27;;;1.57;;
13797;SDS011;6970;51.340;3.240;2022-10-16T15:31:22;4.20;;;1.43;;
13797;SDS011;6970;51.340;3.240;2022-10-16T15:33:50;3.53;;;1.50;;
13797;SDS011;6970;51.340;3.240;2022-10-16T15:36:30;5.27;;;1.80;;
13797;SDS011;6970;51.340;3.240;2022-10-16T15:39:03;5.50;;;1.50;;
13797;SDS011;6970;51.340;3.240;2022-10-16T15:41:31;4.37;;;1.50;;
13797;SDS011;6970;51.340;3.240;2022-10-16T15:43:58;4.53;;;1.53;;
13797;SDS011;6970;51.340;3.240;2022-10-16T15:46:25;5.03;;;1.50;;
13797;SDS011;6970;51.340;3.240;2022-10-16T15:48:55;3.57;;;1.30;;
13797;SDS011;6970;51.340;3.240;2022-10-16T15:51:24;5.00;;;1.60;;
13797;SDS011;6970;51.340;3.240;2022-10-16T15:53:53;4.63;;;1.50;;
13797;SDS011;6970;51.340;3.240;2022-10-16T15:56:22;6.20;;;1.50;;
13797;SDS011;6970;51.340;3.240;2022-10-16T15:58:51;3.73;;;1.33;;
13797;SDS011;6970;51.340;3.240;2022-10-16T16:01:21;3.70;;;1.30;;
13797;SDS011;6970;51.340;3.240;2022-10-16T16:03:48;2.63;;;1.20;;
13797;SDS011;6970;51.340;3.240;2022-10-16T16:06:20;3.23;;;1.93;;
13797;SDS011;6970;51.340;3.240;2022-10-16T16:08:47;4.67;;;2.40;;
13797;SDS011;6970;51.340;3.240;2022-10-16T16:11:14;2.93;;;1.40;;
13797;SDS011;6970;51.340;3.240;2022-10-16T16:13:43;4.03;;;2.17;;
13797;SDS011;6970;51.340;3.240;2022-10-16T16:16:11;3.33;;;1.80;;
13797;SDS011;6970;51.340;3.240;2022-10-16T16:18:40;4.07;;;2.63;;
13797;SDS011;6970;51.340;3.240;2022-10-16T16:21:09;3.30;;;2.07;;
13797;SDS011;6970;51.340;3.240;2022-10-16T16:23:37;4.37;;;1.80;;
13797;SDS011;6970;51.340;3.240;2022-10-16T16:26:06;2.47;;;1.60;;
13797;SDS011;6970;51.340;3.240;2022-10-16T16:28:38;7.63;;;2.37;;
13797;SDS011;6970;51.340;3.240;2022-10-16T16:31:07;4.40;;;2.57;;
13797;SDS011;6970;51.340;3.240;2022-10-16T16:33:34;3.60;;;1.97;;
13797;SDS011;6970;51.340;3.240;2022-10-16T16:36:04;2.70;;;1.60;;
13797;SDS011;6970;51.340;3.240;2022-10-16T16:38:38;4.23;;;1.63;;
13797;SDS011;6970;51.340;3.240;2022-10-16T16:41:15;2.40;;;1.60;;
13797;SDS011;6970;51.340;3.240;2022-10-16T16:43:42;2.77;;;1.87;;
13797;SDS011;6970;51.340;3.240;2022-10-16T16:46:10;1.90;;;1.73;;
13797;SDS011;6970;51.340;3.240;2022-10-16T16:48:37;2.53;;;1.80;;
13797;SDS011;6970;51.340;3.240;2022-10-16T16:51:11;3.77;;;1.50;;
13797;SDS011;6970;51.340;3.240;2022-10-16T16:53:44;3.87;;;2.10;;
13797;SDS011;6970;51.340;3.240;2022-10-16T16:56:12;8.00;;;2.40;;
13797;SDS011;6970;51.340;3.240;2022-10-16T16:58:40;3.50;;;2.10;;
13797;SDS011;6970;51.340;3.240;2022-10-16T17:01:08;5.27;;;2.43;;
13797;SDS011;6970;51.340;3.240;2022-10-16T17:03:52;3.27;;;2.80;;
13797;SDS011;6970;51.340;3.240;2022-10-16T17:06:21;4.77;;;2.70;;
13797;SDS011;6970;51.340;3.240;2022-10-16T17:08:57;4.17;;;2.17;;
13797;SDS011;6970;51.340;3.240;2022-10-16T17:11:27;2.97;;;2.13;;
13797;SDS011;6970;51.340;3.240;2022-10-16T17:13:54;3.33;;;2.67;;
13797;SDS011;6970;51.340;3.240;2022-10-16T17:16:27;3.67;;;2.50;;
13797;SDS011;6970;51.340;3.240;2022-10-16T17:19:03;2.53;;;2.33;;
13797;SDS011;6970;51.340;3.240;2022-10-16T17:21:32;4.97;;;2.37;;
13797;SDS011;6970;51.340;3.240;2022-10-16T17:24:00;6.43;;;2.70;;
13797;SDS011;6970;51.340;3.240;2022-10-16T17:26:28;5.53;;;2.90;;
13797;SDS011;6970;51.340;3.240;2022-10-16T17:28:56;4.33;;;3.30;;
13797;SDS011;6970;51.340;3.240;2022-10-16T17:31:27;3.63;;;3.00;;
13797;SDS011;6970;51.340;3.240;2022-10-16T17:33:56;2.70;;;2.50;;
13797;SDS011;6970;51.340;3.240;2022-10-16T17:36:24;3.00;;;1.97;;
13797;SDS011;6970;51.340;3.240;2022-10-16T17:38:52;3.03;;;1.73;;
13797;SDS011;6970;51.340;3.240;2022-10-16T17:41:20;3.73;;;1.70;;
13797;SDS011;6970;51.340;3.240;2022-10-16T17:43:49;3.07;;;2.03;;